Time;durP1;ratioP1;P1;durP2;ratioP2;P2;SDS_P1;SDS_P2;PMS_P1;PMS_P2;Temp;Humidity;BMP_temperature;BMP_pressure;BME280_temperature;BME280_humidity;BME280_pressure;Samples;Min_cycle;Max_cycle;Signal;HPM_P1;HPM_P2
2021/09/21 00:01:32;;;;;;;13.98;6.57;;;;;;;;;;5053820;28;20021;-75
2021/09/21 00:03:57;;;;;;;19.85;6.82;;;;;;;;;;5053954;28;20469;-75
2021/09/21 00:06:22;;;;;;;16.17;6.25;;;;;;;;;;5054066;28;20044;-75
2021/09/21 00:08:47;;;;;;;23.10;6.60;;;;;;;;;;5053751;28;20099;-75
2021/09/21 00:11:13;;;;;;;13.27;5.88;;;;;;;;;;5053808;28;20069;-75
2021/09/21 00:13:38;;;;;;;22.17;6.10;;;;;;;;;;5053441;28;20413;-75
2021/09/21 00:16:04;;;;;;;25.30;6.45;;;;;;;;;;5053749;28;20013;-76
2021/09/21 00:18:29;;;;;;;14.18;6.15;;;;;;;;;;5053609;28;20029;-75
2021/09/21 00:20:54;;;;;;;17.52;6.15;;;;;;;;;;5053639;28;20056;-77
2021/09/21 00:23:19;;;;;;;12.75;6.32;;;;;;;;;;5053793;28;20024;-76
2021/09/21 00:25:45;;;;;;;12.85;6.30;;;;;;;;;;5052022;28;20473;-75
2021/09/21 00:28:10;;;;;;;10.65;5.68;;;;;;;;;;5053490;28;20048;-75
2021/09/21 00:30:36;;;;;;;16.55;6.38;;;;;;;;;;5053354;28;20035;-75
2021/09/21 00:33:05;;;;;;;15.50;5.82;;;;;;;;;;5053538;28;20095;-75
2021/09/21 00:35:34;;;;;;;10.60;5.68;;;;;;;;;;5052893;28;20028;-75
2021/09/21 00:38:00;;;;;;;16.23;6.15;;;;;;;;;;5053293;28;20031;-75
2021/09/21 00:40:26;;;;;;;17.13;6.13;;;;;;;;;;5053472;28;20052;-75
2021/09/21 00:42:52;;;;;;;14.38;6.60;;;;;;;;;;5053294;28;20037;-75
2021/09/21 00:45:19;;;;;;;12.43;5.55;;;;;;;;;;5053264;28;20100;-75
2021/09/21 00:47:45;;;;;;;15.50;5.85;;;;;;;;;;5053232;28;20068;-75
2021/09/21 00:50:10;;;;;;;14.82;5.65;;;;;;;;;;5053233;28;20064;-75
2021/09/21 00:52:35;;;;;;;16.08;5.68;;;;;;;;;;5053376;28;20096;-75
2021/09/21 00:55:01;;;;;;;13.13;5.55;;;;;;;;;;5053322;28;20037;-75
2021/09/21 00:57:26;;;;;;;13.60;5.70;;;;;;;;;;5052905;28;20037;-75
2021/09/21 00:59:52;;;;;;;16.40;5.75;;;;;;;;;;5053242;28;20021;-75
2021/09/21 01:02:17;;;;;;;15.60;5.35;;;;;;;;;;5052785;28;20033;-76
2021/09/21 01:04:42;;;;;;;17.05;5.35;;;;;;;;;;5053093;28;20040;-75
2021/09/21 01:07:07;;;;;;;12.15;5.15;;;;;;;;;;5052829;28;20033;-75
2021/09/21 01:09:33;;;;;;;18.25;6.30;;;;;;;;;;5052942;28;20029;-75
2021/09/21 01:11:58;;;;;;;21.05;6.22;;;;;;;;;;5053418;28;20037;-76
2021/09/21 01:14:24;;;;;;;15.05;5.93;;;;;;;;;;5053053;28;20376;-75
2021/09/21 01:16:50;;;;;;;14.55;5.45;;;;;;;;;;5052987;28;20033;-75
2021/09/21 01:19:15;;;;;;;13.60;5.35;;;;;;;;;;5052216;28;20040;-75
2021/09/21 01:21:44;;;;;;;18.63;7.47;;;;;;;;;;5052663;28;20096;-75
2021/09/21 01:24:10;;;;;;;16.50;5.63;;;;;;;;;;5052954;28;20033;-75
2021/09/21 01:26:35;;;;;;;8.85;4.18;;;;;;;;;;5052898;28;20436;-75
2021/09/21 01:29:01;;;;;;;13.05;5.07;;;;;;;;;;5052802;28;20025;-75
2021/09/21 01:31:26;;;;;;;8.95;4.65;;;;;;;;;;5052161;28;20029;-75
2021/09/21 01:33:52;;;;;;;14.45;5.70;;;;;;;;;;5052911;28;20049;-75
2021/09/21 01:36:19;;;;;;;13.23;4.60;;;;;;;;;;5052338;28;20017;-76
2021/09/21 01:38:44;;;;;;;11.93;4.88;;;;;;;;;;5052726;28;20033;-75
2021/09/21 01:41:10;;;;;;;12.70;4.78;;;;;;;;;;5052944;28;20039;-75
2021/09/21 01:43:35;;;;;;;15.05;5.40;;;;;;;;;;5052862;28;20024;-76
2021/09/21 01:46:01;;;;;;;11.48;4.68;;;;;;;;;;5052714;28;20543;-75
2021/09/21 01:48:26;;;;;;;18.15;5.68;;;;;;;;;;5055853;28;20470;-75
2021/09/21 01:50:58;;;;;;;15.60;5.43;;;;;;;;;;5056321;28;20078;-75
2021/09/21 01:58:50;;;;;;;23.02;5.75;;;;;;;;;;5055765;28;20047;-75
2021/09/21 02:01:17;;;;;;;24.85;5.05;;;;;;;;;;5056065;28;20024;-75
2021/09/21 02:03:42;;;;;;;16.25;5.45;;;;;;;;;;5056070;28;20027;-75
2021/09/21 02:06:08;;;;;;;13.93;5.35;;;;;;;;;;5056445;28;20029;-75
2021/09/21 02:08:33;;;;;;;15.50;4.68;;;;;;;;;;5056228;28;20047;-75
2021/09/21 02:10:59;;;;;;;13.57;5.57;;;;;;;;;;5056341;28;20033;-76
2021/09/21 02:13:25;;;;;;;16.83;7.18;;;;;;;;;;5055970;28;20083;-75
2021/09/21 02:15:50;;;;;;;15.18;5.40;;;;;;;;;;5056044;28;20025;-75
2021/09/21 02:18:15;;;;;;;12.15;4.38;;;;;;;;;;5056132;28;20071;-75
2021/09/21 02:20:41;;;;;;;19.27;5.28;;;;;;;;;;5055829;28;20120;-75
2021/09/21 02:23:06;;;;;;;16.77;4.65;;;;;;;;;;5055841;28;20059;-75
2021/09/21 02:25:31;;;;;;;15.15;4.90;;;;;;;;;;5055774;28;20053;-75
2021/09/21 02:27:57;;;;;;;11.27;4.45;;;;;;;;;;5055714;28;20029;-75
2021/09/21 02:30:22;;;;;;;13.38;5.03;;;;;;;;;;5055570;28;20036;-75
2021/09/21 02:32:49;;;;;;;21.50;5.68;;;;;;;;;;5055542;28;20183;-75
2021/09/21 02:35:14;;;;;;;9.77;4.55;;;;;;;;;;5055582;28;20178;-75
2021/09/21 02:37:40;;;;;;;10.45;4.18;;;;;;;;;;5055459;28;20096;-75
2021/09/21 02:40:08;;;;;;;16.52;4.95;;;;;;;;;;5055690;28;20373;-75
2021/09/21 02:42:33;;;;;;;14.65;4.63;;;;;;;;;;5055368;28;20423;-75
2021/09/21 02:44:58;;;;;;;14.30;4.78;;;;;;;;;;5055624;28;20028;-76
2021/09/21 02:47:23;;;;;;;24.70;5.68;;;;;;;;;;5055400;28;20021;-75
2021/09/21 02:49:49;;;;;;;14.02;4.60;;;;;;;;;;5055488;28;20140;-75
2021/09/21 02:52:14;;;;;;;14.25;4.78;;;;;;;;;;5055302;28;20025;-75
2021/09/21 02:54:39;;;;;;;11.77;4.80;;;;;;;;;;5055409;28;20021;-75
2021/09/21 02:57:04;;;;;;;12.75;4.88;;;;;;;;;;5054824;28;20512;-75
2021/09/21 02:59:30;;;;;;;12.43;4.22;;;;;;;;;;5054861;28;20100;-75
2021/09/21 03:01:55;;;;;;;11.80;4.55;;;;;;;;;;5055202;28;20075;-75
2021/09/21 03:04:25;;;;;;;15.50;4.70;;;;;;;;;;5054976;28;20113;-76
2021/09/21 03:06:54;;;;;;;15.02;4.70;;;;;;;;;;5055350;28;20021;-75
2021/09/21 03:12:02;;;;;;;12.90;5.05;;;;;;;;;;5054846;28;20398;-75
2021/09/21 03:17:25;;;;;;;14.55;4.97;;;;;;;;;;5054452;28;20094;-75
2021/09/21 03:19:51;;;;;;;11.95;4.90;;;;;;;;;;5054599;28;20461;-75
2021/09/21 03:22:16;;;;;;;13.00;5.38;;;;;;;;;;5054638;28;20029;-75
2021/09/21 03:24:41;;;;;;;16.58;5.00;;;;;;;;;;5054574;28;20158;-75
2021/09/21 03:27:06;;;;;;;11.50;4.40;;;;;;;;;;5054608;28;20025;-75
2021/09/21 03:29:32;;;;;;;11.55;4.50;;;;;;;;;;5053961;28;20032;-75
2021/09/21 03:31:57;;;;;;;12.38;4.97;;;;;;;;;;5054606;28;20454;-75
2021/09/21 03:34:22;;;;;;;14.27;4.47;;;;;;;;;;5054483;28;20430;-76
2021/09/21 03:36:47;;;;;;;10.55;4.50;;;;;;;;;;5053137;28;20048;-75
2021/09/21 03:39:13;;;;;;;15.48;4.88;;;;;;;;;;5054334;28;20519;-75
2021/09/21 03:41:38;;;;;;;10.68;4.18;;;;;;;;;;5054144;28;20096;-75
2021/09/21 03:44:03;;;;;;;10.52;4.32;;;;;;;;;;5054339;28;20033;-75
2021/09/21 03:46:29;;;;;;;10.50;4.63;;;;;;;;;;5054321;28;20188;-76
2021/09/21 03:48:56;;;;;;;17.77;4.47;;;;;;;;;;5054218;28;20426;-75
2021/09/21 03:51:21;;;;;;;18.27;6.57;;;;;;;;;;5054219;28;20025;-75
2021/09/21 03:53:46;;;;;;;13.88;4.70;;;;;;;;;;5054081;28;20432;-75
2021/09/21 03:56:12;;;;;;;18.05;4.75;;;;;;;;;;5054185;28;20017;-75
2021/09/21 03:58:37;;;;;;;9.13;4.40;;;;;;;;;;5053916;28;20039;-75
2021/09/21 04:01:02;;;;;;;7.32;3.65;;;;;;;;;;5054164;28;20122;-75
2021/09/21 04:03:28;;;;;;;10.40;4.22;;;;;;;;;;5053999;28;20084;-75
2021/09/21 04:05:53;;;;;;;13.90;4.60;;;;;;;;;;5053867;28;20043;-75
2021/09/21 04:08:18;;;;;;;11.30;4.32;;;;;;;;;;5053815;28;20028;-75
2021/09/21 04:10:43;;;;;;;13.52;5.10;;;;;;;;;;5053047;28;20116;-75
2021/09/21 04:13:09;;;;;;;13.00;5.03;;;;;;;;;;5053739;28;20408;-75
2021/09/21 04:15:34;;;;;;;13.95;4.93;;;;;;;;;;5052478;28;20091;-75
2021/09/21 04:18:02;;;;;;;13.05;4.93;;;;;;;;;;5054044;28;20441;-75
2021/09/21 04:20:27;;;;;;;12.88;4.40;;;;;;;;;;5054262;28;20106;-75
2021/09/21 04:22:52;;;;;;;11.32;4.47;;;;;;;;;;5053498;28;20458;-75
2021/09/21 04:25:18;;;;;;;18.70;4.18;;;;;;;;;;5053632;28;20049;-75
2021/09/21 04:27:43;;;;;;;8.95;4.35;;;;;;;;;;5053515;28;20044;-75
2021/09/21 04:30:09;;;;;;;14.40;4.85;;;;;;;;;;5053694;28;20119;-75
2021/09/21 04:32:35;;;;;;;13.32;4.43;;;;;;;;;;5053619;28;20085;-75
2021/09/21 04:35:01;;;;;;;11.00;4.50;;;;;;;;;;5053436;28;20370;-75
2021/09/21 04:37:26;;;;;;;8.25;4.18;;;;;;;;;;5053123;28;20021;-75
2021/09/21 04:39:51;;;;;;;13.55;5.32;;;;;;;;;;5052114;28;20021;-75
2021/09/21 04:42:21;;;;;;;17.17;4.15;;;;;;;;;;5053392;28;20477;-75
2021/09/21 04:44:47;;;;;;;15.85;4.45;;;;;;;;;;5053245;28;20087;-75
2021/09/21 04:47:12;;;;;;;9.80;4.13;;;;;;;;;;5053107;28;20453;-75
2021/09/21 04:49:37;;;;;;;16.90;4.38;;;;;;;;;;5053071;28;20043;-75
2021/09/21 04:52:02;;;;;;;15.82;4.65;;;;;;;;;;5051914;28;20028;-76
2021/09/21 04:54:28;;;;;;;17.08;4.68;;;;;;;;;;5053476;28;20035;-75
2021/09/21 04:56:53;;;;;;;13.68;4.50;;;;;;;;;;5053535;28;20385;-75
2021/09/21 04:59:18;;;;;;;11.57;3.75;;;;;;;;;;5053103;28;20511;-75
2021/09/21 05:01:43;;;;;;;12.30;4.28;;;;;;;;;;5053354;28;20055;-75
2021/09/21 05:04:09;;;;;;;11.75;4.13;;;;;;;;;;5053368;28;20036;-75
2021/09/21 05:06:34;;;;;;;11.77;4.13;;;;;;;;;;5053016;28;20052;-75
2021/09/21 05:08:59;;;;;;;9.93;4.35;;;;;;;;;;5053140;28;20067;-75
2021/09/21 05:11:25;;;;;;;9.63;4.50;;;;;;;;;;5053001;28;20572;-75
2021/09/21 05:13:50;;;;;;;12.20;4.25;;;;;;;;;;5053390;28;20095;-75
2021/09/21 05:16:15;;;;;;;13.50;4.78;;;;;;;;;;5053112;28;20029;-75
2021/09/21 05:18:40;;;;;;;13.82;3.97;;;;;;;;;;5052980;28;20115;-75
2021/09/21 05:21:06;;;;;;;15.35;4.25;;;;;;;;;;5053838;28;20032;-75
2021/09/21 05:23:31;;;;;;;14.25;4.57;;;;;;;;;;5057160;28;20020;-75
2021/09/21 05:25:56;;;;;;;9.63;4.38;;;;;;;;;;5056938;28;20060;-75
2021/09/21 05:28:22;;;;;;;10.60;4.70;;;;;;;;;;5056899;28;20024;-75
2021/09/21 05:30:47;;;;;;;16.55;4.60;;;;;;;;;;5056690;28;20032;-75
2021/09/21 05:33:12;;;;;;;15.63;4.05;;;;;;;;;;5056820;28;20044;-75
2021/09/21 05:35:38;;;;;;;11.77;4.38;;;;;;;;;;5056607;28;20375;-76
2021/09/21 05:38:03;;;;;;;15.60;5.18;;;;;;;;;;5056715;28;20107;-75
2021/09/21 05:40:28;;;;;;;10.48;4.15;;;;;;;;;;5056971;28;20113;-75
2021/09/21 05:42:54;;;;;;;10.05;4.00;;;;;;;;;;5056609;28;20100;-75
2021/09/21 05:45:19;;;;;;;9.73;3.95;;;;;;;;;;5056362;28;20031;-75
2021/09/21 05:47:46;;;;;;;11.25;4.25;;;;;;;;;;5056701;28;20060;-75
2021/09/21 05:50:12;;;;;;;17.02;4.93;;;;;;;;;;5056511;28;20389;-75
2021/09/21 05:52:37;;;;;;;11.18;4.13;;;;;;;;;;5056435;28;20024;-75
2021/09/21 05:55:03;;;;;;;18.05;4.10;;;;;;;;;;5056584;28;20094;-77
2021/09/21 05:57:28;;;;;;;9.48;4.10;;;;;;;;;;5056420;28;20415;-75
2021/09/21 05:59:53;;;;;;;8.43;3.22;;;;;;;;;;5056396;28;20409;-75
2021/09/21 06:02:23;;;;;;;11.93;4.15;;;;;;;;;;5056445;28;20040;-75
2021/09/21 06:04:48;;;;;;;10.77;4.45;;;;;;;;;;5056163;28;20028;-75
2021/09/21 06:07:13;;;;;;;10.13;3.85;;;;;;;;;;5056214;28;20025;-75
2021/09/21 06:09:38;;;;;;;18.42;4.75;;;;;;;;;;5056045;28;20102;-75
2021/09/21 06:12:04;;;;;;;8.30;3.85;;;;;;;;;;5055723;28;20024;-76
2021/09/21 06:14:29;;;;;;;10.32;3.83;;;;;;;;;;5056043;28;20017;-75
2021/09/21 06:16:54;;;;;;;12.85;4.07;;;;;;;;;;5056244;28;20044;-75
2021/09/21 06:19:19;;;;;;;12.50;4.20;;;;;;;;;;5055884;28;20025;-75
2021/09/21 06:21:45;;;;;;;11.02;3.90;;;;;;;;;;5056158;28;20402;-75
2021/09/21 06:24:10;;;;;;;16.67;4.53;;;;;;;;;;5055774;28;20040;-75
2021/09/21 06:26:36;;;;;;;10.88;4.32;;;;;;;;;;5055711;28;20382;-75
2021/09/21 06:29:02;;;;;;;7.25;3.67;;;;;;;;;;5055906;28;20086;-75
2021/09/21 06:31:27;;;;;;;15.38;3.95;;;;;;;;;;5055625;28;20366;-75
2021/09/21 06:33:52;;;;;;;12.40;3.97;;;;;;;;;;5054958;28;20063;-75
2021/09/21 06:36:18;;;;;;;15.55;4.32;;;;;;;;;;5055595;28;20191;-75
2021/09/21 06:38:43;;;;;;;11.55;3.47;;;;;;;;;;5055011;28;20470;-75
2021/09/21 06:41:08;;;;;;;17.42;5.30;;;;;;;;;;5055216;28;20104;-75
2021/09/21 06:43:34;;;;;;;23.15;5.00;;;;;;;;;;5055507;28;20040;-76
2021/09/21 06:45:59;;;;;;;12.43;4.15;;;;;;;;;;5055762;28;20358;-76
2021/09/21 06:48:25;;;;;;;57.55;7.38;;;;;;;;;;5055215;28;20374;-76
2021/09/21 06:50:51;;;;;;;36.30;6.07;;;;;;;;;;5055297;28;20035;-76
2021/09/21 06:53:16;;;;;;;26.77;4.75;;;;;;;;;;5055392;28;20060;-76
2021/09/21 06:55:41;;;;;;;20.00;3.47;;;;;;;;;;5054923;28;20025;-76
2021/09/21 06:58:07;;;;;;;11.32;3.10;;;;;;;;;;5055199;28;20346;-77
2021/09/21 07:00:35;;;;;;;15.57;3.97;;;;;;;;;;5055058;28;20090;-76
2021/09/21 07:03:00;;;;;;;14.07;3.92;;;;;;;;;;5054913;28;20021;-75
2021/09/21 07:05:25;;;;;;;17.20;4.28;;;;;;;;;;5054753;28;20031;-76
2021/09/21 07:07:51;;;;;;;25.65;3.80;;;;;;;;;;5055189;28;20110;-76
2021/09/21 07:10:17;;;;;;;9.27;2.83;;;;;;;;;;5055177;28;20245;-75
2021/09/21 07:12:43;;;;;;;33.92;5.75;;;;;;;;;;5055004;28;20444;-76
2021/09/21 07:15:09;;;;;;;7.05;2.55;;;;;;;;;;5054906;28;20535;-76
2021/09/21 07:17:34;;;;;;;10.93;2.97;;;;;;;;;;5054468;28;20025;-76
2021/09/21 07:20:00;;;;;;;10.30;3.30;;;;;;;;;;5054587;28;20013;-75
2021/09/21 07:22:25;;;;;;;7.32;2.97;;;;;;;;;;5054577;28;20032;-75
2021/09/21 07:24:51;;;;;;;4.75;1.90;;;;;;;;;;5054663;28;20020;-75
2021/09/21 07:27:16;;;;;;;6.72;2.70;;;;;;;;;;5054789;28;20017;-75
2021/09/21 07:29:42;;;;;;;8.55;2.53;;;;;;;;;;5047637;28;20036;-75
2021/09/21 07:32:07;;;;;;;8.50;2.75;;;;;;;;;;5054213;28;20024;-76
2021/09/21 07:34:32;;;;;;;9.00;3.10;;;;;;;;;;5054156;28;20052;-75
2021/09/21 07:36:58;;;;;;;7.45;2.58;;;;;;;;;;5054326;28;20515;-75
2021/09/21 07:39:23;;;;;;;6.40;2.70;;;;;;;;;;5056451;28;21049;-75
2021/09/21 07:41:48;;;;;;;9.30;3.20;;;;;;;;;;5070606;28;20028;-75
2021/09/21 07:44:15;;;;;;;7.93;2.72;;;;;;;;;;5059298;28;20091;-78
2021/09/21 07:46:40;;;;;;;5.43;2.72;;;;;;;;;;5050577;28;20017;-75
2021/09/21 07:49:05;;;;;;;7.30;2.40;;;;;;;;;;5066684;28;20381;-77
2021/09/21 07:51:30;;;;;;;11.43;2.47;;;;;;;;;;5056288;28;20393;-75
2021/09/21 07:53:56;;;;;;;3.88;1.63;;;;;;;;;;5068960;28;20023;-76
2021/09/21 07:56:21;;;;;;;8.55;2.10;;;;;;;;;;5060427;28;20021;-76
2021/09/21 07:58:46;;;;;;;5.50;2.20;;;;;;;;;;5061846;28;20029;-75
2021/09/21 08:01:12;;;;;;;6.00;1.80;;;;;;;;;;5054006;28;20103;-75
2021/09/21 08:03:37;;;;;;;4.68;1.95;;;;;;;;;;5068457;28;20082;-76
2021/09/21 08:06:02;;;;;;;6.68;1.60;;;;;;;;;;5056811;28;20077;-75
2021/09/21 08:08:28;;;;;;;4.75;1.52;;;;;;;;;;5063079;28;20083;-76
2021/09/21 08:10:53;;;;;;;5.18;1.50;;;;;;;;;;5064553;28;20043;-75
2021/09/21 08:13:18;;;;;;;8.00;1.58;;;;;;;;;;5057184;28;20071;-76
2021/09/21 08:15:43;;;;;;;5.63;1.48;;;;;;;;;;5069501;28;20104;-75
2021/09/21 08:18:09;;;;;;;4.15;1.40;;;;;;;;;;5059467;28;20013;-73
2021/09/21 08:20:35;;;;;;;6.78;1.30;;;;;;;;;;5064181;28;20029;-73
2021/09/21 08:23:00;;;;;;;9.35;1.75;;;;;;;;;;5052932;28;20346;-75
2021/09/21 08:25:26;;;;;;;5.13;1.33;;;;;;;;;;5053500;28;20040;-73
2021/09/21 08:27:51;;;;;;;7.72;1.40;;;;;;;;;;5053410;28;20070;-73
2021/09/21 08:30:19;;;;;;;5.97;1.17;;;;;;;;;;5053135;28;20108;-73
2021/09/21 08:32:44;;;;;;;5.38;1.08;;;;;;;;;;5052887;28;20033;-73
2021/09/21 08:35:10;;;;;;;2.70;1.05;;;;;;;;;;5052976;28;20425;-73
2021/09/21 08:37:35;;;;;;;8.18;1.58;;;;;;;;;;5053076;28;20033;-73
2021/09/21 08:40:00;;;;;;;4.90;1.10;;;;;;;;;;5046177;28;20013;-76
2021/09/21 08:42:26;;;;;;;7.35;1.35;;;;;;;;;;5049425;28;20032;-76
2021/09/21 08:44:51;;;;;;;3.35;1.10;;;;;;;;;;5050550;28;20024;-76
2021/09/21 08:47:17;;;;;;;3.97;1.23;;;;;;;;;;5050166;28;20067;-76
2021/09/21 08:49:43;;;;;;;3.35;1.20;;;;;;;;;;5048313;28;20072;-77
2021/09/21 08:52:08;;;;;;;2.88;0.95;;;;;;;;;;5049930;28;20543;-76
2021/09/21 08:54:33;;;;;;;5.88;1.63;;;;;;;;;;5050240;28;20453;-76
2021/09/21 08:56:59;;;;;;;3.00;1.30;;;;;;;;;;5055413;28;20032;-80
2021/09/21 08:59:36;;;;;;;2.25;1.00;;;;;;;;;;5056421;28;20048;-76
2021/09/21 09:02:05;;;;;;;3.58;1.20;;;;;;;;;;5056918;28;20056;-77
2021/09/21 09:04:30;;;;;;;3.35;1.33;;;;;;;;;;5057007;28;20512;-75
2021/09/21 09:06:56;;;;;;;3.45;1.70;;;;;;;;;;5057093;28;20108;-74
2021/09/21 09:09:23;;;;;;;9.20;1.40;;;;;;;;;;5056431;28;20033;-77
2021/09/21 09:11:52;;;;;;;3.05;1.20;;;;;;;;;;5056657;28;20036;-74
2021/09/21 09:14:28;;;;;;;2.35;1.20;;;;;;;;;;5056526;28;20021;-74
2021/09/21 09:16:54;;;;;;;4.93;1.50;;;;;;;;;;5056752;28;20036;-74
2021/09/21 09:19:20;;;;;;;3.78;1.30;;;;;;;;;;5056535;28;20098;-74
2021/09/21 09:21:46;;;;;;;4.18;1.25;;;;;;;;;;5056665;28;20395;-74
2021/09/21 09:24:13;;;;;;;4.18;1.38;;;;;;;;;;5056909;28;20032;-78
2021/09/21 09:26:40;;;;;;;3.25;0.90;;;;;;;;;;5057196;28;20041;-74
2021/09/21 09:29:12;;;;;;;5.35;1.27;;;;;;;;;;5056281;28;20068;-74
2021/09/21 09:31:39;;;;;;;5.25;1.27;;;;;;;;;;5056603;28;20036;-76
2021/09/21 09:34:07;;;;;;;3.17;1.30;;;;;;;;;;5056546;28;20049;-74
2021/09/21 09:36:41;;;;;;;3.42;1.00;;;;;;;;;;5055799;28;20120;-76
2021/09/21 09:39:07;;;;;;;5.38;1.35;;;;;;;;;;5056339;28;20065;-74
2021/09/21 09:41:38;;;;;;;4.32;1.05;;;;;;;;;;5055962;28;20071;-75
2021/09/21 09:44:05;;;;;;;3.90;1.10;;;;;;;;;;5056498;28;20036;-75
2021/09/21 09:46:39;;;;;;;2.30;1.00;;;;;;;;;;5056277;28;20029;-74
2021/09/21 09:49:05;;;;;;;4.15;1.33;;;;;;;;;;5056218;28;20435;-75
2021/09/21 09:51:30;;;;;;;6.10;1.15;;;;;;;;;;5056558;28;20041;-74
2021/09/21 09:53:56;;;;;;;2.50;1.08;;;;;;;;;;5056019;28;20060;-78
2021/09/21 09:56:21;;;;;;;5.85;1.30;;;;;;;;;;5057247;28;20013;-74
2021/09/21 09:58:46;;;;;;;3.15;1.10;;;;;;;;;;5056128;28;20451;-77
2021/09/21 10:01:11;;;;;;;7.03;1.10;;;;;;;;;;5052534;28;20028;-75
2021/09/21 10:03:37;;;;;;;4.18;1.15;;;;;;;;;;5054773;28;20753;-75
2021/09/21 10:06:03;;;;;;;5.45;1.38;;;;;;;;;;5056080;28;20029;-75
2021/09/21 10:08:28;;;;;;;4.13;1.60;;;;;;;;;;5052822;28;20202;-74
2021/09/21 10:10:53;;;;;;;5.97;1.60;;;;;;;;;;5052125;28;20029;-74
2021/09/21 10:13:19;;;;;;;6.55;1.52;;;;;;;;;;5052526;28;20465;-74
2021/09/21 10:15:46;;;;;;;5.68;1.92;;;;;;;;;;5052210;28;20110;-74
2021/09/21 10:18:15;;;;;;;3.95;1.25;;;;;;;;;;5052272;28;20021;-74
2021/09/21 10:20:41;;;;;;;7.53;2.40;;;;;;;;;;5051977;28;20073;-74
2021/09/21 10:23:10;;;;;;;3.60;1.00;;;;;;;;;;5052856;28;20504;-79
2021/09/21 10:25:40;;;;;;;5.47;1.60;;;;;;;;;;5052740;28;20170;-77
2021/09/21 10:28:19;;;;;;;5.50;1.30;;;;;;;;;;5052748;28;20029;-76
2021/09/21 10:30:53;;;;;;;4.63;1.40;;;;;;;;;;5051819;28;20123;-76
2021/09/21 10:33:22;;;;;;;6.32;1.50;;;;;;;;;;5051072;28;20076;-78
2021/09/21 10:35:49;;;;;;;4.28;1.80;;;;;;;;;;5052119;28;20041;-77
2021/09/21 10:38:15;;;;;;;6.40;1.70;;;;;;;;;;5050942;28;20033;-79
2021/09/21 10:40:42;;;;;;;5.88;1.38;;;;;;;;;;5052165;28;20040;-77
2021/09/21 10:43:08;;;;;;;3.35;1.33;;;;;;;;;;5051924;28;20044;-76
2021/09/21 10:45:33;;;;;;;3.33;1.23;;;;;;;;;;5051579;28;20017;-76
2021/09/21 10:48:00;;;;;;;6.85;1.73;;;;;;;;;;5046688;28;20037;-76
2021/09/21 10:50:25;;;;;;;6.80;1.92;;;;;;;;;;5052706;28;20174;-78
2021/09/21 10:53:01;;;;;;;4.28;1.17;;;;;;;;;;5050213;28;20100;-76
2021/09/21 10:55:32;;;;;;;4.00;1.40;;;;;;;;;;5046171;28;20033;-77
2021/09/21 10:58:03;;;;;;;6.45;1.75;;;;;;;;;;5049051;28;20025;-76
2021/09/21 11:00:30;;;;;;;8.57;2.45;;;;;;;;;;5047306;28;20021;-76
2021/09/21 11:02:56;;;;;;;7.47;2.58;;;;;;;;;;5048922;28;20029;-76
2021/09/21 11:05:29;;;;;;;7.88;1.90;;;;;;;;;;5048741;28;20032;-75
2021/09/21 11:07:56;;;;;;;8.82;1.98;;;;;;;;;;5049554;28;20083;-75
2021/09/21 11:10:24;;;;;;;8.30;1.80;;;;;;;;;;5048109;28;20068;-76
2021/09/21 11:12:50;;;;;;;7.07;2.20;;;;;;;;;;5048588;28;20021;-75
2021/09/21 11:15:16;;;;;;;7.35;2.20;;;;;;;;;;5048466;28;20017;-76
2021/09/21 11:17:42;;;;;;;8.90;2.30;;;;;;;;;;5047999;28;20039;-76
2021/09/21 11:20:07;;;;;;;5.20;1.85;;;;;;;;;;5047899;28;20518;-76
2021/09/21 11:22:33;;;;;;;6.78;2.25;;;;;;;;;;5048134;28;20021;-75
2021/09/21 11:25:06;;;;;;;3.78;1.88;;;;;;;;;;5048979;28;20037;-77
2021/09/21 11:27:38;;;;;;;5.05;1.95;;;;;;;;;;5048638;28;20553;-76
2021/09/21 11:30:07;;;;;;;13.20;3.13;;;;;;;;;;5048597;28;20130;-76
2021/09/21 11:32:32;;;;;;;7.13;2.55;;;;;;;;;;5047766;28;20243;-78
2021/09/21 11:35:08;;;;;;;10.70;2.92;;;;;;;;;;5048572;28;20141;-75
2021/09/21 11:37:34;;;;;;;5.45;2.20;;;;;;;;;;5048407;28;21017;-76
2021/09/21 11:39:59;;;;;;;9.25;2.42;;;;;;;;;;5047603;28;20150;-76
2021/09/21 11:42:31;;;;;;;9.02;2.90;;;;;;;;;;5047922;28;20469;-75
2021/09/21 11:45:00;;;;;;;9.82;2.50;;;;;;;;;;5048286;28;20031;-76
2021/09/21 11:47:36;;;;;;;12.00;2.30;;;;;;;;;;5048188;28;20112;-76
2021/09/21 11:50:06;;;;;;;7.97;2.70;;;;;;;;;;5047418;28;20120;-77
2021/09/21 11:52:31;;;;;;;5.85;2.60;;;;;;;;;;5047870;28;20074;-75
2021/09/21 11:54:57;;;;;;;6.63;2.40;;;;;;;;;;5048008;28;20021;-76
2021/09/21 11:57:22;;;;;;;10.02;2.72;;;;;;;;;;5047747;28;20036;-77
2021/09/21 11:59:48;;;;;;;7.50;2.65;;;;;;;;;;5048113;28;20389;-75
2021/09/21 12:02:17;;;;;;;5.72;2.53;;;;;;;;;;5047503;28;20474;-77
2021/09/21 12:04:43;;;;;;;6.32;2.60;;;;;;;;;;5047696;28;20029;-76
2021/09/21 12:07:09;;;;;;;7.97;2.90;;;;;;;;;;5047569;28;20059;-76
2021/09/21 12:09:35;;;;;;;6.05;2.30;;;;;;;;;;5045966;28;20461;-76
2021/09/21 12:12:00;;;;;;;5.45;2.05;;;;;;;;;;5047083;28;20036;-79
2021/09/21 12:14:26;;;;;;;8.80;2.33;;;;;;;;;;5047865;28;20037;-78
2021/09/21 12:16:51;;;;;;;5.95;1.85;;;;;;;;;;5048029;28;20086;-76
2021/09/21 12:19:18;;;;;;;7.43;2.30;;;;;;;;;;5047463;28;20032;-76
2021/09/21 12:21:44;;;;;;;5.90;2.30;;;;;;;;;;5046623;28;20548;-75
2021/09/21 12:24:09;;;;;;;5.95;1.88;;;;;;;;;;5047702;28;20470;-75
2021/09/21 12:26:35;;;;;;;5.47;2.17;;;;;;;;;;5048581;28;20037;-77
2021/09/21 12:29:00;;;;;;;5.45;2.25;;;;;;;;;;5047537;28;20029;-76
2021/09/21 12:31:27;;;;;;;6.43;2.60;;;;;;;;;;5048192;28;20033;-79
2021/09/21 12:33:53;;;;;;;9.93;2.53;;;;;;;;;;5048203;28;20049;-76
2021/09/21 12:36:25;;;;;;;5.72;2.22;;;;;;;;;;5046434;28;20424;-77
2021/09/21 12:38:56;;;;;;;7.10;1.80;;;;;;;;;;5047718;28;20029;-76
2021/09/21 12:41:21;;;;;;;5.40;2.20;;;;;;;;;;5048079;28;20035;-75
2021/09/21 12:43:52;;;;;;;5.63;2.72;;;;;;;;;;5046787;28;20115;-77
2021/09/21 12:46:18;;;;;;;5.88;1.85;;;;;;;;;;5047895;28;20075;-77
2021/09/21 12:48:43;;;;;;;6.53;1.98;;;;;;;;;;5047891;28;20025;-76
2021/09/21 12:51:09;;;;;;;6.95;2.78;;;;;;;;;;5047629;28;20397;-76
2021/09/21 12:53:35;;;;;;;12.38;2.95;;;;;;;;;;5046897;28;20047;-79
2021/09/21 12:56:04;;;;;;;5.78;2.17;;;;;;;;;;5047346;28;20049;-77
2021/09/21 12:58:35;;;;;;;7.57;2.38;;;;;;;;;;5046945;28;20091;-76
2021/09/21 13:01:02;;;;;;;6.90;2.00;;;;;;;;;;5047339;28;20021;-75
2021/09/21 13:03:27;;;;;;;5.45;2.20;;;;;;;;;;5046922;28;20032;-76
2021/09/21 13:05:53;;;;;;;5.88;2.00;;;;;;;;;;5048159;28;20024;-76
2021/09/21 13:08:18;;;;;;;6.95;2.25;;;;;;;;;;5047152;28;20025;-76
2021/09/21 13:10:45;;;;;;;7.72;2.15;;;;;;;;;;5047532;28;20114;-76
2021/09/21 13:13:10;;;;;;;7.00;2.38;;;;;;;;;;5046821;28;20017;-76
2021/09/21 13:15:37;;;;;;;5.20;2.03;;;;;;;;;;5047656;28;20020;-76
2021/09/21 13:18:03;;;;;;;6.47;2.15;;;;;;;;;;5047404;28;20112;-76
2021/09/21 13:20:30;;;;;;;5.45;1.90;;;;;;;;;;5047863;28;20104;-77
2021/09/21 13:22:55;;;;;;;5.95;2.13;;;;;;;;;;5047352;28;20025;-78
2021/09/21 13:25:21;;;;;;;7.88;2.47;;;;;;;;;;5046814;28;20362;-76
2021/09/21 13:27:47;;;;;;;3.75;1.80;;;;;;;;;;5047635;28;20377;-76
2021/09/21 13:30:13;;;;;;;5.28;1.80;;;;;;;;;;5045808;28;20477;-76
2021/09/21 13:32:39;;;;;;;6.90;2.08;;;;;;;;;;5044335;28;20079;-79
2021/09/21 13:35:09;;;;;;;4.53;1.55;;;;;;;;;;5047302;28;20032;-76
2021/09/21 13:37:34;;;;;;;8.05;2.03;;;;;;;;;;5047115;28;20466;-77
2021/09/21 13:39:59;;;;;;;5.65;1.80;;;;;;;;;;5046448;28;20032;-75
2021/09/21 13:42:25;;;;;;;6.53;1.67;;;;;;;;;;5047679;28;20441;-76
2021/09/21 13:44:50;;;;;;;8.00;1.83;;;;;;;;;;5049662;28;20111;-76
2021/09/21 13:47:15;;;;;;;5.38;1.85;;;;;;;;;;5049631;28;20048;-79
2021/09/21 13:49:41;;;;;;;6.32;1.55;;;;;;;;;;5050118;28;20040;-75
2021/09/21 13:52:09;;;;;;;3.17;1.40;;;;;;;;;;5050507;28;20012;-76
2021/09/21 13:54:34;;;;;;;5.53;1.70;;;;;;;;;;5049638;28;20039;-76
2021/09/21 13:56:59;;;;;;;7.47;1.90;;;;;;;;;;5049965;28;20029;-78
2021/09/21 13:59:25;;;;;;;5.30;1.40;;;;;;;;;;5050480;28;20488;-77
2021/09/21 14:01:50;;;;;;;3.75;1.48;;;;;;;;;;5050921;28;20044;-77
2021/09/21 14:04:15;;;;;;;5.53;2.10;;;;;;;;;;5049642;28;20032;-77
2021/09/21 14:06:40;;;;;;;4.55;1.67;;;;;;;;;;5049950;28;20866;-76
2021/09/21 14:09:06;;;;;;;6.20;1.60;;;;;;;;;;5049176;28;20024;-75
2021/09/21 14:11:31;;;;;;;4.40;1.70;;;;;;;;;;5039583;28;20132;-77
2021/09/21 14:13:56;;;;;;;5.70;1.85;;;;;;;;;;5041233;28;20056;-76
2021/09/21 14:16:22;;;;;;;5.85;2.05;;;;;;;;;;5045516;28;20039;-76
2021/09/21 14:18:47;;;;;;;4.25;1.90;;;;;;;;;;5049532;28;20021;-78
2021/09/21 14:21:12;;;;;;;5.43;1.63;;;;;;;;;;5049820;28;20073;-75
2021/09/21 14:23:38;;;;;;;4.60;1.40;;;;;;;;;;5049303;28;20112;-76
2021/09/21 14:26:03;;;;;;;4.93;1.48;;;;;;;;;;5050123;28;20078;-76
2021/09/21 14:28:29;;;;;;;5.00;1.77;;;;;;;;;;5050298;28;20032;-76
2021/09/21 14:30:54;;;;;;;2.63;1.20;;;;;;;;;;5049192;28;20041;-77
2021/09/21 14:33:19;;;;;;;5.10;1.27;;;;;;;;;;5049021;28;20501;-76
2021/09/21 14:35:49;;;;;;;3.85;1.60;;;;;;;;;;5048744;28;20029;-78
2021/09/21 14:38:14;;;;;;;7.18;1.45;;;;;;;;;;5049792;28;20036;-76
2021/09/21 14:40:40;;;;;;;4.60;1.60;;;;;;;;;;5049491;28;20028;-75